Time;durP1;ratioP1;P1;durP2;ratioP2;P2;SDS_P1;SDS_P2;PMS_P1;PMS_P2;Temp;Humidity;BMP_temperature;BMP_pressure;BME280_temperature;BME280_humidity;BME280_pressure;Samples;Min_cycle;Max_cycle;Signal;HPM_P1;HPM_P2
2022/07/13 00:01:30;;;;;;;15.95;2.00;;;;;;;13.69;77.89;101328.75;5091744;28;20028;-83
2022/07/13 00:03:59;;;;;;;9.40;1.65;;;;;;;13.68;77.88;101335.06;5089278;28;20456;-83
2022/07/13 00:06:25;;;;;;;15.05;1.73;;;;;;;13.63;77.92;101332.81;5074409;28;20024;-83
2022/07/13 00:08:50;;;;;;;14.93;2.28;;;;;;;13.61;77.91;101327.66;5089312;28;20107;-83
2022/07/13 00:11:16;;;;;;;10.95;1.35;;;;;;;13.64;77.66;101332.69;5074286;28;20043;-83
2022/07/13 00:13:42;;;;;;;8.95;1.55;;;;;;;13.67;77.73;101330.69;5090408;28;20488;-83
2022/07/13 00:16:08;;;;;;;12.88;2.03;;;;;;;13.66;77.54;101324.56;5057579;28;20165;-83
2022/07/13 00:18:34;;;;;;;5.53;1.40;;;;;;;13.71;77.30;101337.41;5090891;28;20052;-83
2022/07/13 00:20:59;;;;;;;6.70;1.60;;;;;;;13.72;77.34;101328.47;5091309;28;20039;-83
2022/07/13 00:23:25;;;;;;;10.70;1.83;;;;;;;13.79;77.03;101328.72;5090678;28;20031;-83
2022/07/13 00:25:51;;;;;;;10.95;1.50;;;;;;;13.85;77.00;101333.47;5077381;28;20032;-83
2022/07/13 00:28:17;;;;;;;10.88;1.45;;;;;;;13.90;76.55;101325.91;5105705;28;20031;-83
2022/07/13 00:30:43;;;;;;;15.75;1.92;;;;;;;13.98;76.34;101327.84;5078506;28;20512;-83
2022/07/13 00:33:09;;;;;;;14.35;2.10;;;;;;;14.09;75.97;101316.19;5057807;28;20492;-82
2022/07/13 00:35:35;;;;;;;11.35;1.85;;;;;;;14.23;75.70;101323.69;5090737;28;20108;-83
2022/07/13 00:38:01;;;;;;;10.98;1.67;;;;;;;14.28;75.48;101323.25;5072609;28;20133;-77
2022/07/13 00:40:27;;;;;;;10.25;1.67;;;;;;;14.39;75.22;101332.84;5090126;28;20105;-77
2022/07/13 00:42:53;;;;;;;10.38;1.63;;;;;;;14.52;74.95;101338.63;5094166;28;20031;-83
2022/07/13 00:45:19;;;;;;;7.20;1.25;;;;;;;14.62;74.81;101343.09;5076142;28;20043;-84
2022/07/13 00:47:47;;;;;;;8.82;1.75;;;;;;;14.73;74.55;101340.19;5080270;28;20032;-83
2022/07/13 00:50:14;;;;;;;12.48;2.67;;;;;;;14.80;74.38;101347.63;5076627;28;20043;-83
2022/07/13 00:52:40;;;;;;;10.15;2.22;;;;;;;14.82;74.39;101349.16;5076516;28;20055;-83
2022/07/13 00:55:08;;;;;;;9.00;1.90;;;;;;;14.83;74.25;101360.63;5076154;28;20409;-83
2022/07/13 00:57:35;;;;;;;7.75;1.50;;;;;;;14.83;74.25;101356.16;5101413;28;20120;-77
2022/07/13 01:00:08;;;;;;;13.23;1.75;;;;;;;14.89;74.03;101349.41;5097899;28;20035;-77
2022/07/13 01:02:36;;;;;;;8.95;2.05;;;;;;;14.90;73.83;101342.22;5085444;28;20032;-83
2022/07/13 01:05:02;;;;;;;8.80;1.38;;;;;;;14.93;73.93;101352.56;5071691;28;20032;-83
2022/07/13 01:07:32;;;;;;;7.25;1.45;;;;;;;14.99;73.77;101351.97;5075971;28;20032;-80
2022/07/13 01:09:59;;;;;;;9.73;2.22;;;;;;;15.07;73.52;101346.75;5094002;28;20028;-77
2022/07/13 01:12:30;;;;;;;9.98;2.08;;;;;;;15.09;73.36;101354.56;5101070;28;20036;-77
2022/07/13 01:14:58;;;;;;;6.53;1.63;;;;;;;15.04;73.24;101362.16;5083590;28;20046;-77
2022/07/13 01:17:28;;;;;;;10.95;2.28;;;;;;;14.97;73.49;101352.13;5086883;28;20123;-76
2022/07/13 01:19:54;;;;;;;11.35;2.70;;;;;;;14.86;73.46;101361.16;5081389;28;20024;-76
2022/07/13 01:22:29;;;;;;;7.35;2.22;;;;;;;14.84;73.78;101362.31;5092330;28;20028;-77
2022/07/13 01:24:55;;;;;;;8.38;2.08;;;;;;;14.84;74.12;101360.47;5059190;28;20040;-83
2022/07/13 01:27:22;;;;;;;12.07;1.98;;;;;;;14.86;74.38;101366.50;5094105;28;20081;-83
2022/07/13 01:29:48;;;;;;;10.93;2.13;;;;;;;14.92;74.10;101367.72;5075391;28;20038;-82
2022/07/13 01:32:13;;;;;;;11.18;1.92;;;;;;;14.92;73.97;101359.75;5083408;28;20119;-83
2022/07/13 01:34:39;;;;;;;13.80;2.30;;;;;;;14.91;73.88;101368.69;5087629;28;20039;-83
2022/07/13 01:37:08;;;;;;;12.93;2.35;;;;;;;14.85;73.90;101369.31;5075937;28;20035;-84
2022/07/13 01:39:34;;;;;;;10.65;1.73;;;;;;;14.78;74.05;101355.72;5090197;28;20431;-83
2022/07/13 01:42:00;;;;;;;9.95;1.90;;;;;;;14.69;74.18;101336.19;5091848;28;20042;-83
2022/07/13 01:44:26;;;;;;;13.73;1.88;;;;;;;14.76;74.25;101341.75;5061455;28;20043;-76
2022/07/13 01:46:53;;;;;;;7.55;1.77;;;;;;;14.82;74.29;101351.81;5075333;28;20055;-77
2022/07/13 01:49:20;;;;;;;8.65;1.50;;;;;;;14.85;74.19;101345.34;5085524;28;20483;-83
2022/07/13 01:51:45;;;;;;;8.35;1.77;;;;;;;14.83;74.34;101348.16;5086365;28;20039;-83
2022/07/13 01:54:13;;;;;;;4.82;1.27;;;;;;;14.83;74.28;101344.66;5085528;28;20354;-83
2022/07/13 01:56:40;;;;;;;7.88;1.05;;;;;;;14.83;74.38;101348.16;5084975;28;20400;-83
2022/07/13 01:59:06;;;;;;;9.70;1.65;;;;;;;14.84;74.29;101354.34;5075336;28;20032;-83
2022/07/13 02:01:32;;;;;;;6.97;1.85;;;;;;;14.82;74.21;101362.47;5090369;28;20039;-83
2022/07/13 02:03:58;;;;;;;9.25;1.90;;;;;;;14.83;74.50;101368.59;5091763;28;20078;-83
2022/07/13 02:06:24;;;;;;;9.10;2.03;;;;;;;14.81;74.44;101367.94;5091469;28;20076;-83
2022/07/13 02:08:50;;;;;;;12.10;1.88;;;;;;;14.71;74.74;101354.66;5065883;28;20038;-77
2022/07/13 02:11:19;;;;;;;12.10;2.03;;;;;;;14.61;75.19;101336.94;5074724;28;20028;-77
2022/07/13 02:13:46;;;;;;;8.10;1.35;;;;;;;14.56;75.36;101355.16;5074445;28;20044;-83
2022/07/13 02:16:13;;;;;;;10.27;1.63;;;;;;;14.47;75.47;101354.22;5057410;28;20027;-83
2022/07/13 02:18:40;;;;;;;6.95;1.70;;;;;;;14.50;75.70;101351.28;5056409;28;20438;-83
2022/07/13 02:21:06;;;;;;;7.47;1.52;;;;;;;14.46;75.67;101351.72;5074586;28;20070;-82
2022/07/13 02:23:32;;;;;;;9.98;1.67;;;;;;;14.41;75.69;101376.09;5073903;28;20026;-83
2022/07/13 02:25:58;;;;;;;8.10;1.27;;;;;;;14.36;75.67;101378.34;5091384;28;20408;-83
2022/07/13 02:28:23;;;;;;;8.82;2.10;;;;;;;14.38;75.81;101387.84;5090049;28;20048;-76
2022/07/13 02:30:50;;;;;;;10.32;2.15;;;;;;;14.40;75.51;101377.06;5065669;28;20032;-77
2022/07/13 02:33:16;;;;;;;7.25;1.33;;;;;;;14.33;75.55;101370.66;5070804;28;20044;-83
2022/07/13 02:35:43;;;;;;;11.60;1.52;;;;;;;14.24;75.70;101375.88;5089573;28;20110;-83
2022/07/13 02:38:09;;;;;;;8.25;1.45;;;;;;;14.19;75.92;101372.81;5072432;28;20028;-83
2022/07/13 02:40:35;;;;;;;6.28;1.20;;;;;;;14.16;75.90;101373.09;5090331;28;20055;-83
2022/07/13 02:43:01;;;;;;;13.35;2.65;;;;;;;14.09;75.91;101388.81;5090642;28;20024;-83
2022/07/13 02:45:27;;;;;;;6.18;1.40;;;;;;;13.98;75.83;101381.00;5100204;28;20114;-83
2022/07/13 02:47:55;;;;;;;8.80;1.40;;;;;;;13.89;75.97;101377.38;5091924;28;20443;-83
2022/07/13 02:50:21;;;;;;;7.95;1.35;;;;;;;13.82;76.26;101379.78;5089990;28;20031;-83
2022/07/13 02:52:47;;;;;;;5.22;1.08;;;;;;;13.69;76.36;101372.09;5088897;28;20075;-83
2022/07/13 02:55:12;;;;;;;9.32;1.10;;;;;;;13.59;76.54;101366.78;5075149;28;20495;-83
2022/07/13 02:57:40;;;;;;;8.02;1.17;;;;;;;13.47;76.95;101360.75;5072808;28;20035;-83
2022/07/13 03:00:08;;;;;;;9.43;1.27;;;;;;;13.40;77.04;101370.25;5082899;28;20085;-83
2022/07/13 03:02:35;;;;;;;4.88;1.10;;;;;;;13.34;77.30;101363.72;5083754;28;20028;-83
2022/07/13 03:05:02;;;;;;;5.47;1.30;;;;;;;13.26;77.37;101366.22;5075045;28;20396;-83
2022/07/13 03:07:27;;;;;;;10.02;1.27;;;;;;;13.18;77.53;101353.63;5091804;28;20392;-83
2022/07/13 03:09:54;;;;;;;5.63;0.85;;;;;;;13.08;77.98;101361.59;5091490;28;20028;-83
2022/07/13 03:12:20;;;;;;;5.07;1.20;;;;;;;12.99;78.31;101363.28;5089083;28;20024;-83
2022/07/13 03:14:46;;;;;;;4.60;0.80;;;;;;;12.95;78.77;101359.19;5072723;28;20036;-76
2022/07/13 03:17:11;;;;;;;4.43;0.90;;;;;;;12.90;78.92;101356.94;5072519;28;20511;-77
2022/07/13 03:19:37;;;;;;;6.95;1.33;;;;;;;12.85;78.74;101359.16;5104252;28;20515;-83
2022/07/13 03:22:04;;;;;;;6.18;1.05;;;;;;;12.86;78.70;101355.56;5047896;28;20056;-83
2022/07/13 03:24:31;;;;;;;7.00;0.95;;;;;;;12.88;78.80;101350.94;5089741;28;20039;-82
2022/07/13 03:26:58;;;;;;;5.57;1.15;;;;;;;12.87;78.91;101351.06;5072019;28;20103;-83
2022/07/13 03:29:24;;;;;;;5.80;0.85;;;;;;;12.83;78.85;101357.63;5087613;28;20028;-83
2022/07/13 03:31:52;;;;;;;10.07;2.15;;;;;;;12.75;79.38;101359.19;5083811;28;20757;-83
2022/07/13 03:34:18;;;;;;;10.18;1.25;;;;;;;12.70;79.46;101360.53;5073756;28;20032;-83
2022/07/13 03:36:44;;;;;;;3.85;0.85;;;;;;;12.68;79.52;101358.03;5083335;28;20034;-83
2022/07/13 03:39:10;;;;;;;5.50;0.93;;;;;;;12.67;79.98;101359.00;5079404;28;20032;-83
2022/07/13 03:41:36;;;;;;;9.43;0.98;;;;;;;12.68;80.16;101355.38;5070452;28;20521;-83
2022/07/13 03:44:04;;;;;;;7.03;1.42;;;;;;;12.80;79.76;101364.06;5087328;28;20499;-83
2022/07/13 03:46:30;;;;;;;7.07;1.48;;;;;;;12.88;79.29;101358.91;5085308;28;20064;-83
2022/07/13 03:48:56;;;;;;;10.75;1.15;;;;;;;12.89;78.89;101365.06;5048210;28;20112;-83
2022/07/13 03:51:23;;;;;;;6.97;1.17;;;;;;;12.89;78.94;101359.75;5106295;28;20028;-83
2022/07/13 03:53:49;;;;;;;6.05;1.15;;;;;;;12.86;79.04;101355.56;5104839;28;20534;-77
2022/07/13 03:56:14;;;;;;;7.05;1.58;;;;;;;12.82;79.17;101353.31;5080260;28;20111;-76
2022/07/13 03:58:40;;;;;;;7.60;1.10;;;;;;;12.77;79.06;101338.63;5081071;28;20035;-83
2022/07/13 04:01:07;;;;;;;8.40;1.58;;;;;;;12.72;79.45;101348.84;5067473;28;20381;-83
2022/07/13 04:03:33;;;;;;;4.85;0.75;;;;;;;12.67;79.15;101363.47;5085485;28;20043;-83
2022/07/13 04:06:00;;;;;;;7.20;1.88;;;;;;;12.64;79.52;101349.53;5086284;28;20039;-83
2022/07/13 04:08:26;;;;;;;6.07;1.05;;;;;;;12.61;79.61;101356.91;5079792;28;20035;-83
2022/07/13 04:10:53;;;;;;;5.53;0.90;;;;;;;12.62;79.48;101350.59;5066545;28;20052;-83
2022/07/13 04:13:19;;;;;;;7.47;1.02;;;;;;;12.69;78.80;101353.56;5065891;28;20021;-83
2022/07/13 04:15:45;;;;;;;6.10;0.85;;;;;;;12.79;78.75;101354.41;5091536;28;20482;-83
2022/07/13 04:18:10;;;;;;;4.90;1.25;;;;;;;12.90;78.16;101361.41;5075297;28;20032;-83
2022/07/13 04:20:36;;;;;;;5.35;0.85;;;;;;;13.02;77.91;101348.88;5072342;28;20056;-83
2022/07/13 04:23:02;;;;;;;6.78;1.10;;;;;;;13.14;77.34;101354.88;5090447;28;20476;-83
2022/07/13 04:25:29;;;;;;;4.95;0.80;;;;;;;13.21;76.86;101355.16;5091989;28;20036;-83
2022/07/13 04:27:56;;;;;;;8.00;1.35;;;;;;;13.24;76.59;101369.00;5086237;28;20039;-77
2022/07/13 04:30:22;;;;;;;6.40;0.90;;;;;;;13.26;76.24;101348.47;5075230;28;20553;-77
2022/07/13 04:32:49;;;;;;;6.57;1.00;;;;;;;13.28;76.17;101359.78;5091299;28;20051;-83
2022/07/13 04:35:17;;;;;;;2.55;0.80;;;;;;;13.23;75.88;101362.03;5089879;28;20032;-81
2022/07/13 04:37:45;;;;;;;2.88;0.90;;;;;;;13.21;75.75;101369.28;5088854;28;20040;-83
2022/07/13 04:40:12;;;;;;;3.88;0.73;;;;;;;13.21;75.72;101358.66;5090164;28;20028;-83
2022/07/13 04:42:37;;;;;;;4.90;0.80;;;;;;;13.24;75.72;101368.16;5088372;28;20016;-83
2022/07/13 04:45:04;;;;;;;6.25;1.08;;;;;;;13.23;75.51;101370.00;5082542;28;20515;-83
2022/07/13 04:47:32;;;;;;;4.43;1.00;;;;;;;13.22;75.59;101365.66;5086150;28;20682;-83
2022/07/13 04:49:57;;;;;;;3.85;0.90;;;;;;;13.23;75.50;101364.69;5090546;28;20040;-83
2022/07/13 04:52:24;;;;;;;6.95;0.95;;;;;;;13.24;75.50;101366.34;5071935;28;20039;-83
2022/07/13 04:54:51;;;;;;;7.65;1.23;;;;;;;13.26;75.58;101374.19;5069501;28;20040;-77
2022/07/13 04:57:17;;;;;;;4.07;1.05;;;;;;;13.23;75.37;101375.31;5091670;28;20031;-77
2022/07/13 04:59:42;;;;;;;7.40;0.80;;;;;;;13.20;75.51;101383.56;5088118;28;20440;-83
2022/07/13 05:02:08;;;;;;;5.30;1.13;;;;;;;13.21;75.74;101384.38;5058569;28;20033;-83
2022/07/13 05:04:35;;;;;;;2.40;0.90;;;;;;;13.22;75.66;101376.25;5091616;28;20456;-83
2022/07/13 05:07:01;;;;;;;3.30;1.13;;;;;;;13.24;75.38;101382.28;5087535;28;20035;-83
2022/07/13 05:09:27;;;;;;;3.97;1.00;;;;;;;13.29;75.54;101381.88;5087178;28;20051;-83
2022/07/13 05:11:55;;;;;;;3.38;1.02;;;;;;;13.35;75.42;101394.59;5090216;28;20029;-83
2022/07/13 05:14:21;;;;;;;4.22;1.08;;;;;;;13.40;75.33;101389.69;5089695;28;20037;-83
2022/07/13 05:16:47;;;;;;;8.82;1.00;;;;;;;13.45;75.56;101391.09;5073557;28;20032;-83
2022/07/13 05:19:14;;;;;;;6.95;0.90;;;;;;;13.48;75.59;101399.63;5106452;28;20031;-76
2022/07/13 05:21:41;;;;;;;4.35;0.98;;;;;;;13.49;75.49;101393.31;5090253;28;20450;-76
2022/07/13 05:24:08;;;;;;;3.38;0.80;;;;;;;13.51;75.53;101395.88;5074932;28;20073;-83
2022/07/13 05:26:36;;;;;;;5.80;0.73;;;;;;;13.53;75.81;101401.88;5073571;28;20029;-83
2022/07/13 05:29:04;;;;;;;2.45;0.75;;;;;;;13.57;75.69;101397.16;5089537;28;20028;-83
2022/07/13 05:31:31;;;;;;;4.57;0.93;;;;;;;13.60;75.70;101395.03;5072434;28;20040;-83
2022/07/13 05:33:58;;;;;;;5.78;1.55;;;;;;;13.62;75.65;101392.22;5091212;28;20089;-83
2022/07/13 05:36:29;;;;;;;6.57;1.23;;;;;;;13.55;76.14;101391.13;5083435;28;20402;-83
2022/07/13 05:38:55;;;;;;;5.57;1.02;;;;;;;13.57;76.46;101400.63;5095992;28;20032;-83
2022/07/13 05:41:21;;;;;;;9.07;1.10;;;;;;;13.58;76.32;101397.00;5091551;28;20480;-83
2022/07/13 05:43:47;;;;;;;2.78;0.88;;;;;;;13.63;76.34;101400.06;5088404;28;20024;-77
2022/07/13 05:46:13;;;;;;;7.28;1.00;;;;;;;13.63;76.17;101401.88;5057858;28;20038;-76
2022/07/13 05:48:39;;;;;;;3.80;0.93;;;;;;;13.60;76.31;101402.19;5074883;28;20028;-83
2022/07/13 05:51:06;;;;;;;5.18;1.23;;;;;;;13.54;76.36;101389.47;5089163;28;20103;-84
2022/07/13 05:53:32;;;;;;;7.88;1.33;;;;;;;13.51;76.20;101395.88;5073418;28;20036;-76
2022/07/13 05:55:58;;;;;;;4.05;1.00;;;;;;;13.52;76.33;101397.56;5090617;28;20036;-77
2022/07/13 05:58:25;;;;;;;3.70;0.65;;;;;;;13.50;76.24;101400.38;5100413;28;20103;-83
2022/07/13 06:00:50;;;;;;;3.67;0.93;;;;;;;13.54;76.24;101395.59;5091307;28;20495;-82
2022/07/13 06:03:16;;;;;;;1.90;0.68;;;;;;;13.58;76.06;101404.13;5072369;28;20035;-77
2022/07/13 06:05:42;;;;;;;3.30;1.08;;;;;;;13.66;75.84;101406.06;5092004;28;20109;-76
2022/07/13 06:08:08;;;;;;;8.07;1.30;;;;;;;13.70;75.93;101403.00;5074752;28;20097;-83
2022/07/13 06:10:34;;;;;;;7.50;0.80;;;;;;;13.71;76.08;101402.00;5071211;28;20125;-83
2022/07/13 06:13:00;;;;;;;4.45;1.00;;;;;;;13.75;75.51;101411.38;5091205;28;20105;-83
2022/07/13 06:15:25;;;;;;;7.28;1.30;;;;;;;13.82;75.86;101411.66;5089393;28;20035;-83
2022/07/13 06:17:51;;;;;;;2.75;0.77;;;;;;;13.80;75.42;101413.63;5078744;28;20379;-83
2022/07/13 06:20:17;;;;;;;6.80;1.02;;;;;;;13.85;75.55;101415.84;5078992;28;20392;-83
2022/07/13 06:23:09;;;;;;;2.85;0.80;;;;;;;13.92;75.38;101411.63;5068268;28;20032;-83
2022/07/13 06:25:29;;;;;;;1.55;0.45;;;;;;;13.96;75.09;101414.84;5080590;28;20032;-83
2022/07/13 06:27:54;;;;;;;2.25;0.70;;;;;;;14.03;74.82;101431.88;5106627;28;20066;-83
2022/07/13 06:30:20;;;;;;;1.65;0.60;;;;;;;14.09;74.47;101425.19;5089785;28;20024;-83
2022/07/13 06:32:46;;;;;;;3.00;0.70;;;;;;;14.13;74.31;101419.44;5079613;28;20047;-83
2022/07/13 06:35:12;;;;;;;1.85;0.60;;;;;;;14.14;74.23;101428.25;5067617;28;20042;-83
2022/07/13 06:37:38;;;;;;;4.68;0.70;;;;;;;14.13;73.86;101438.03;5105134;28;20105;-83
2022/07/13 06:40:04;;;;;;;5.22;0.80;;;;;;;14.14;73.35;101434.38;5079585;28;20032;-82
2022/07/13 06:42:30;;;;;;;4.22;0.50;;;;;;;14.10;73.32;101433.00;5106819;28;20111;-79
2022/07/13 06:44:56;;;;;;;5.22;1.17;;;;;;;14.12;73.41;101438.19;5083989;28;20554;-83
2022/07/13 06:47:22;;;;;;;3.08;0.70;;;;;;;14.15;73.32;101432.56;5085672;28;20047;-83
2022/07/13 06:49:48;;;;;;;4.50;0.77;;;;;;;14.13;73.02;101423.91;5106643;28;20040;-83
2022/07/13 06:52:13;;;;;;;4.93;0.80;;;;;;;14.15;73.22;101429.91;5082257;28;20504;-82
2022/07/13 06:54:39;;;;;;;2.88;0.50;;;;;;;14.15;72.97;101427.25;5085913;28;20032;-76
2022/07/13 06:57:05;;;;;;;6.45;0.98;;;;;;;14.21;72.82;101429.34;5088347;28;20030;-76
2022/07/13 06:59:31;;;;;;;3.58;0.80;;;;;;;14.26;72.68;101437.72;5085477;28;20373;-82
2022/07/13 07:01:57;;;;;;;1.20;0.50;;;;;;;14.25;72.62;101433.38;5071164;28;20032;-83
2022/07/13 07:04:22;;;;;;;3.15;0.65;;;;;;;14.20;73.08;101430.34;5085895;28;20058;-83
2022/07/13 07:06:48;;;;;;;2.90;0.40;;;;;;;14.19;73.30;101436.63;5088693;28;20036;-83
2022/07/13 07:09:14;;;;;;;4.88;0.95;;;;;;;14.22;73.22;101430.19;5084233;28;20090;-83
2022/07/13 07:11:40;;;;;;;1.73;0.50;;;;;;;14.30;73.28;101430.28;5088168;28;20397;-83
2022/07/13 07:14:06;;;;;;;3.05;0.65;;;;;;;14.35;73.07;101427.22;5080576;28;20032;-83
2022/07/13 07:16:32;;;;;;;6.15;0.88;;;;;;;14.36;72.83;101429.72;5089859;28;20133;-80
2022/07/13 07:18:57;;;;;;;4.35;0.75;;;;;;;14.58;73.07;101432.16;5103825;28;20046;-83
2022/07/13 07:21:23;;;;;;;3.10;1.25;;;;;;;14.92;72.94;101425.44;5086581;28;20036;-82
2022/07/13 07:23:49;;;;;;;5.28;0.50;;;;;;;15.34;72.59;101424.03;5082195;28;20073;-83
2022/07/13 07:26:15;;;;;;;5.20;0.70;;;;;;;15.58;71.99;101420.78;5061799;28;20025;-83
2022/07/13 07:28:41;;;;;;;6.75;1.00;;;;;;;15.62;71.35;101423.97;5078717;28;20040;-82
2022/07/13 07:31:07;;;;;;;4.45;0.75;;;;;;;15.52;71.10;101415.22;5083447;28;20072;-83
2022/07/13 07:33:32;;;;;;;5.05;0.65;;;;;;;15.52;71.05;101415.22;5082333;28;20044;-83
2022/07/13 07:35:58;;;;;;;2.78;0.60;;;;;;;15.57;70.99;101411.13;5085045;28;20028;-83
2022/07/13 07:38:24;;;;;;;2.85;0.50;;;;;;;15.50;70.39;101408.22;5071718;28;20050;-83
2022/07/13 07:40:50;;;;;;;6.63;0.60;;;;;;;15.40;70.00;101404.78;5082608;28;20028;-83
2022/07/13 07:43:16;;;;;;;4.20;0.60;;;;;;;15.38;70.74;101409.44;5080661;28;20381;-83
2022/07/13 07:45:42;;;;;;;3.25;0.52;;;;;;;15.36;70.27;101404.28;5083902;28;20439;-83
2022/07/13 07:48:07;;;;;;;3.67;1.08;;;;;;;15.43;70.14;101412.47;5079977;28;20036;-83
2022/07/13 07:50:33;;;;;;;2.42;0.40;;;;;;;15.53;69.91;101414.25;5087975;28;20036;-82
2022/07/13 07:52:59;;;;;;;0.57;0.40;;;;;;;15.53;69.70;101411.56;5095573;28;20024;-82
2022/07/13 07:55:25;;;;;;;4.43;0.70;;;;;;;15.59;69.81;101419.78;5058081;28;20024;-83
2022/07/13 07:57:51;;;;;;;2.67;0.60;;;;;;;15.71;69.68;101420.38;5070754;28;20033;-76
2022/07/13 08:00:18;;;;;;;2.53;0.60;;;;;;;15.93;69.79;101423.53;5085759;28;20037;-77
2022/07/13 08:02:45;;;;;;;3.10;0.60;;;;;;;16.15;69.06;101423.22;5087674;28;20032;-83
2022/07/13 08:05:11;;;;;;;5.53;0.70;;;;;;;16.29;68.21;101427.97;5090481;28;20032;-82
2022/07/13 08:07:45;;;;;;;2.60;0.57;;;;;;;16.44;67.48;101435.38;5070682;28;20031;-83
2022/07/13 08:10:12;;;;;;;10.95;0.68;;;;;;;16.45;66.98;101429.88;5091304;28;20085;-82
2022/07/13 08:12:39;;;;;;;6.35;0.80;;;;;;;16.40;66.47;101437.53;5087409;28;20112;-83
2022/07/13 08:15:07;;;;;;;6.53;0.60;;;;;;;16.23;66.57;101439.25;5069919;28;20085;-82
2022/07/13 08:17:36;;;;;;;5.28;0.73;;;;;;;16.21;66.23;101426.06;5106135;28;20123;-82
2022/07/13 08:20:03;;;;;;;6.13;0.70;;;;;;;16.21;66.13;101430.59;5089915;28;20119;-83
2022/07/13 08:22:29;;;;;;;2.63;0.55;;;;;;;16.19;65.80;101430.75;5090565;28;20028;-82
2022/07/13 08:24:55;;;;;;;0.77;0.28;;;;;;;16.04;65.50;101432.31;5090634;28;20031;-82
2022/07/13 08:27:21;;;;;;;2.72;0.40;;;;;;;15.98;65.91;101439.09;5092138;28;20035;-83
2022/07/13 08:29:47;;;;;;;4.40;0.30;;;;;;;15.99;65.58;101435.44;5091076;28;20473;-83
2022/07/13 08:32:13;;;;;;;1.60;0.52;;;;;;;16.05;65.32;101437.50;5075421;28;20404;-83
2022/07/13 08:40:10;;;;;;;1.80;0.30;;;;;;;16.05;64.69;101439.31;5088335;28;20135;-83
2022/07/13 08:42:36;;;;;;;1.80;0.38;;;;;;;16.08;64.62;101431.00;5090734;28;20097;-82
2022/07/13 08:45:03;;;;;;;1.40;0.30;;;;;;;16.02;64.23;101437.81;5077116;28;20028;-82
2022/07/13 08:47:30;;;;;;;4.78;0.30;;;;;;;15.93;64.37;101434.19;5074510;28;20040;-83
2022/07/13 08:50:04;;;;;;;5.63;0.47;;;;;;;15.84;64.26;101430.66;5092066;28;20036;-82
2022/07/13 08:52:30;;;;;;;4.20;0.40;;;;;;;15.75;64.21;101439.56;5093368;28;20396;-82
2022/07/13 08:54:58;;;;;;;2.35;0.28;;;;;;;15.74;63.86;101435.22;5077711;28;20071;-83
2022/07/13 08:57:24;;;;;;;3.22;0.40;;;;;;;15.84;63.63;101435.13;5090182;28;20027;-82
2022/07/13 08:59:51;;;;;;;2.63;0.52;;;;;;;15.96;63.01;101433.88;5075198;28;20044;-77
2022/07/13 09:02:17;;;;;;;2.72;0.30;;;;;;;16.07;62.61;101440.00;5093315;28;20032;-77
2022/07/13 09:04:44;;;;;;;4.07;0.40;;;;;;;16.23;62.28;101437.44;5073944;28;20040;-83
2022/07/13 09:07:11;;;;;;;2.28;0.60;;;;;;;16.39;61.93;101443.84;5092820;28;20036;-83
2022/07/13 09:09:38;;;;;;;3.00;0.40;;;;;;;16.57;61.34;101442.94;5072313;28;20059;-83
2022/07/13 09:12:18;;;;;;;1.50;0.38;;;;;;;16.69;60.30;101439.00;5076236;28;20035;-82
2022/07/13 09:14:51;;;;;;;2.90;0.50;;;;;;;16.84;60.55;101443.72;5091717;28;20419;-83
2022/07/13 09:17:33;;;;;;;1.15;0.50;;;;;;;16.88;58.87;101449.59;5090487;28;20032;-83
2022/07/13 09:20:14;;;;;;;2.03;0.50;;;;;;;16.86;59.93;101447.91;5086514;28;20040;-83
2022/07/13 09:22:50;;;;;;;6.70;0.45;;;;;;;16.79;59.57;101451.38;5089675;28;20055;-77
2022/07/13 09:25:29;;;;;;;2.20;0.40;;;;;;;16.82;59.45;101449.22;5089716;28;20044;-77
2022/07/13 09:27:55;;;;;;;5.22;0.40;;;;;;;16.84;59.64;101455.25;5089532;28;20020;-82
2022/07/13 09:30:26;;;;;;;4.72;0.40;;;;;;;16.97;59.23;101452.13;5051722;28;20032;-82
2022/07/13 09:32:53;;;;;;;7.72;0.82;;;;;;;17.01;59.02;101455.28;5067342;28;20036;-82
2022/07/13 09:35:21;;;;;;;1.85;0.40;;;;;;;16.98;58.91;101452.94;5087083;28;20180;-82
2022/07/13 09:37:48;;;;;;;4.57;0.30;;;;;;;17.16;58.84;101444.84;5088301;28;20777;-82
2022/07/13 09:40:17;;;;;;;2.72;0.30;;;;;;;17.24;58.35;101449.38;5087861;28;20125;-82
2022/07/13 09:42:45;;;;;;;1.65;0.30;;;;;;;17.31;58.03;101447.72;5076467;28;20028;-77
2022/07/13 09:48:00;;;;;;;2.05;0.40;;;;;;;17.18;58.26;101450.03;5088099;28;20081;-82
2022/07/13 09:50:40;;;;;;;1.65;0.30;;;;;;;17.17;57.35;101459.06;5085571;28;20083;-82
2022/07/13 09:53:27;;;;;;;1.58;0.22;;;;;;;17.23;56.97;101455.72;5083396;28;20044;-82
2022/07/13 09:55:55;;;;;;;2.67;0.22;;;;;;;17.26;57.25;101459.91;5083267;28;20119;-82
2022/07/13 09:58:32;;;;;;;1.35;0.28;;;;;;;17.32;56.84;101459.25;5068221;28;20047;-82
2022/07/13 10:01:00;;;;;;;5.15;0.40;;;;;;;17.54;57.40;101459.59;5035160;28;20046;-82
2022/07/13 10:03:30;;;;;;;3.42;0.60;;;;;;;17.67;57.59;101454.63;5077114;28;20076;-77
2022/07/13 10:05:58;;;;;;;0.77;0.20;;;;;;;17.71;57.48;101453.25;5070351;28;20463;-77
2022/07/13 10:08:24;;;;;;;1.65;0.40;;;;;;;17.84;57.70;101459.94;5085323;28;20496;-82
2022/07/13 10:10:50;;;;;;;2.17;0.50;;;;;;;17.93;57.40;101456.25;5086673;28;20034;-82
2022/07/13 10:13:17;;;;;;;3.90;0.90;;;;;;;17.94;57.25;101460.63;5026384;28;20093;-82
2022/07/13 10:15:44;;;;;;;1.55;0.30;;;;;;;17.97;57.13;101462.13;5086758;28;20122;-83
2022/07/13 10:18:16;;;;;;;0.85;0.20;;;;;;;18.07;56.75;101459.25;5086314;28;20525;-77
2022/07/13 10:20:50;;;;;;;2.55;0.32;;;;;;;18.05;56.19;101458.59;5089461;28;20035;-76
2022/07/13 10:23:38;;;;;;;1.98;0.30;;;;;;;17.93;56.50;101456.25;5070092;28;20028;-77
2022/07/13 10:26:20;;;;;;;2.03;0.30;;;;;;;17.84;56.19;101463.47;5008412;28;20488;-78
2022/07/13 10:29:06;;;;;;;2.88;0.30;;;;;;;17.79;57.02;101459.63;5067028;28;20031;-77
2022/07/13 10:31:33;;;;;;;1.42;0.43;;;;;;;17.84;57.25;101459.94;5078688;28;20418;-77
2022/07/13 10:34:01;;;;;;;3.45;0.30;;;;;;;17.86;57.62;101460.63;5083103;28;20060;-82
2022/07/13 10:36:51;;;;;;;2.45;0.40;;;;;;;17.90;57.41;101463.81;5067130;28;20032;-82
2022/07/13 10:39:23;;;;;;;3.28;0.35;;;;;;;18.10;57.49;101469.63;5097104;28;20107;-82
2022/07/13 10:42:03;;;;;;;2.47;0.30;;;;;;;18.22;56.69;101465.63;5082175;28;20472;-83
2022/07/13 10:44:39;;;;;;;2.53;0.35;;;;;;;18.32;56.35;101469.94;5085249;28;20112;-83
2022/07/13 10:47:08;;;;;;;1.85;0.30;;;;;;;18.25;56.79;101475.13;5078126;28;20090;-83
2022/07/13 10:49:53;;;;;;;7.15;0.50;;;;;;;18.13;57.04;101472.00;5080605;28;20031;-83
2022/07/13 10:52:22;;;;;;;1.17;0.20;;;;;;;18.01;57.16;101468.81;5061634;28;20036;-82
2022/07/13 10:55:03;;;;;;;2.25;0.43;;;;;;;17.81;57.02;101481.66;5101585;28;20035;-82
2022/07/13 10:57:30;;;;;;;5.25;0.50;;;;;;;17.71;57.36;101474.66;5086306;28;20044;-82
2022/07/13 11:00:22;;;;;;;6.15;0.68;;;;;;;17.66;57.34;101485.00;5083549;28;20028;-82
2022/07/13 11:03:01;;;;;;;7.30;0.70;;;;;;;17.71;57.64;101469.31;5064364;28;20032;-82
2022/07/13 11:05:34;;;;;;;10.88;0.80;;;;;;;17.76;57.48;101476.81;5086948;28;20044;-83
2022/07/13 11:08:14;;;;;;;2.10;0.60;;;;;;;17.78;57.60;101479.34;5066973;28;20027;-77
2022/07/13 11:10:40;;;;;;;6.28;0.73;;;;;;;17.83;57.90;101483.19;5102148;28;20155;-76
2022/07/13 11:13:12;;;;;;;3.03;0.40;;;;;;;17.82;57.35;101475.34;5087897;28;20115;-82
2022/07/13 11:15:42;;;;;;;2.00;0.40;;;;;;;17.86;57.30;101476.66;5080902;28;20032;-82
2022/07/13 11:18:37;;;;;;;2.25;0.40;;;;;;;17.81;55.51;101479.84;5064252;28;20052;-82
2022/07/13 11:21:05;;;;;;;4.15;0.47;;;;;;;17.83;56.93;101471.66;5085317;28;20304;-82
2022/07/13 11:26:28;;;;;;;3.15;0.68;;;;;;;17.90;56.89;101458.44;5086509;28;20389;-82
2022/07/13 11:29:12;;;;;;;1.92;0.50;;;;;;;18.01;56.65;101467.97;5083560;28;20051;-82
2022/07/13 11:31:39;;;;;;;3.42;0.68;;;;;;;17.94;56.46;101476.66;5082699;28;20075;-82
2022/07/13 11:34:06;;;;;;;1.98;0.68;;;;;;;17.88;56.84;101473.81;5068927;28;20131;-77
2022/07/13 11:36:33;;;;;;;2.97;0.43;;;;;;;17.89;56.83;101479.00;5087257;28;20039;-77
2022/07/13 11:39:00;;;;;;;4.00;0.65;;;;;;;17.89;57.10;101481.69;5086743;28;20047;-82